Time;durP1;ratioP1;P1;durP2;ratioP2;P2;SDS_P1;SDS_P2;PMS_P1;PMS_P2;Temp;Humidity;BMP_temperature;BMP_pressure;BME280_temperature;BME280_humidity;BME280_pressure;Samples;Min_cycle;Max_cycle;Signal;HPM_P1;HPM_P2
2021/12/28 00:00:20;;;;;;;68.17;32.60;;;;;;;-4.27;96.83;99859.09;4975642;28;20445;-85
2021/12/28 00:02:49;;;;;;;68.53;31.67;;;;;;;-4.24;96.71;99863.44;4979048;28;20038;-84
2021/12/28 00:05:17;;;;;;;76.00;31.33;;;;;;;-4.35;96.27;99860.59;4973412;28;20051;-83
2021/12/28 00:07:44;;;;;;;71.30;31.57;;;;;;;-4.28;96.55;99852.19;4979507;28;20045;-84
2021/12/28 00:10:15;;;;;;;76.83;32.33;;;;;;;-4.35;95.92;99857.16;4975180;28;20610;-83
2021/12/28 00:12:42;;;;;;;74.43;33.00;;;;;;;-4.35;96.81;99857.16;4982413;28;20574;-83
2021/12/28 00:15:31;;;;;;;74.97;32.70;;;;;;;-4.36;96.39;99863.13;4984264;28;20042;-84
2021/12/28 00:18:02;;;;;;;71.23;33.70;;;;;;;-4.40;97.07;99856.13;4987872;28;20041;-83
2021/12/28 00:20:33;;;;;;;64.93;30.53;;;;;;;-4.42;97.03;99855.22;4993577;28;20518;-84
2021/12/28 00:23:04;;;;;;;73.47;32.47;;;;;;;-4.41;97.53;99852.69;4979989;28;20049;-83
2021/12/28 00:25:31;;;;;;;70.10;31.23;;;;;;;-4.42;97.45;99852.66;5000169;28;20732;-83
2021/12/28 00:27:58;;;;;;;69.00;31.03;;;;;;;-4.47;98.66;99859.38;4972487;28;20062;-84
2021/12/28 00:30:25;;;;;;;64.43;30.67;;;;;;;-4.48;97.56;99843.03;4974760;28;20446;-83
2021/12/28 00:32:53;;;;;;;65.10;32.00;;;;;;;-4.53;98.71;99855.81;4984682;28;20057;-83
2021/12/28 00:35:22;;;;;;;67.03;31.90;;;;;;;-4.55;98.53;99847.16;4994088;28;20046;-83
2021/12/28 00:37:50;;;;;;;66.07;30.97;;;;;;;-4.57;98.58;99853.09;4986915;28;20046;-83
2021/12/28 00:40:17;;;;;;;67.37;31.17;;;;;;;-4.55;98.54;99859.16;4975329;28;20045;-82
2021/12/28 00:42:45;;;;;;;71.30;32.93;;;;;;;-4.55;98.52;99857.47;4967193;28;20085;-83
2021/12/28 00:45:13;;;;;;;66.17;28.90;;;;;;;-4.62;98.64;99857.28;4992260;28;20025;-83
2021/12/28 00:47:40;;;;;;;69.23;31.63;;;;;;;-4.63;97.98;99851.22;4986063;28;20217;-83
2021/12/28 00:50:11;;;;;;;66.37;31.07;;;;;;;-4.64;98.33;99853.78;4976828;28;20125;-84
2021/12/28 00:52:38;;;;;;;71.63;33.70;;;;;;;-4.66;98.92;99853.72;4986650;28;20104;-83
2021/12/28 00:55:07;;;;;;;67.33;32.57;;;;;;;-4.64;98.96;99857.22;4995879;28;20037;-84
2021/12/28 00:57:33;;;;;;;65.40;32.83;;;;;;;-4.63;98.77;99855.50;4981211;28;20100;-83
2021/12/28 01:00:05;;;;;;;71.67;30.93;;;;;;;-4.66;98.72;99839.97;4967822;28;21952;-82
2021/12/28 01:02:32;;;;;;;76.33;34.00;;;;;;;-4.70;98.60;99854.50;4985930;28;20636;-83
2021/12/28 01:04:59;;;;;;;64.20;30.47;;;;;;;-4.70;99.07;99839.03;4969541;28;20045;-83
2021/12/28 01:07:25;;;;;;;73.57;32.57;;;;;;;-4.77;99.06;99860.31;4976469;28;20519;-83
2021/12/28 01:09:52;;;;;;;73.30;32.53;;;;;;;-4.95;99.52;99846.91;4967502;28;20581;-83
2021/12/28 01:12:19;;;;;;;72.30;33.13;;;;;;;-4.88;99.79;99851.38;4978566;28;20042;-83
2021/12/28 01:14:46;;;;;;;73.20;33.67;;;;;;;-4.87;100.00;99846.31;4967292;28;20072;-86
2021/12/28 01:17:13;;;;;;;73.03;31.00;;;;;;;-4.85;100.00;99854.94;4979828;28;20056;-84
2021/12/28 01:19:40;;;;;;;70.90;31.40;;;;;;;-4.82;99.75;99847.28;4981658;28;20388;-84
2021/12/28 01:22:07;;;;;;;69.33;31.37;;;;;;;-4.81;98.82;99850.72;4976830;28;20038;-83
2021/12/28 01:24:34;;;;;;;75.83;32.43;;;;;;;-4.78;100.00;99855.13;4970204;28;20029;-83
2021/12/28 01:27:01;;;;;;;67.17;30.97;;;;;;;-4.81;100.00;99861.03;4994692;28;20095;-84
2021/12/28 01:29:28;;;;;;;63.50;31.10;;;;;;;-4.84;100.00;99851.53;4987739;28;20687;-84
2021/12/28 01:31:55;;;;;;;69.50;33.67;;;;;;;-4.87;100.00;99843.72;4980514;28;20052;-83
2021/12/28 01:34:22;;;;;;;71.23;32.33;;;;;;;-4.89;99.75;99841.91;4983110;28;20044;-83
2021/12/28 01:36:49;;;;;;;65.10;31.50;;;;;;;-4.85;99.49;99854.06;5008068;28;20513;-83
2021/12/28 01:39:16;;;;;;;74.97;31.70;;;;;;;-4.80;100.00;99849.91;4975841;28;20072;-83
2021/12/28 01:41:43;;;;;;;64.40;29.93;;;;;;;-4.86;100.00;99848.03;4977638;28;20461;-83
2021/12/28 01:44:12;;;;;;;71.60;31.50;;;;;;;-4.87;100.00;99840.28;4997499;28;20041;-84
2021/12/28 01:46:39;;;;;;;64.17;29.63;;;;;;;-4.91;99.75;99843.56;4974656;28;20041;-83
2021/12/28 01:49:11;;;;;;;71.47;31.83;;;;;;;-5.04;100.00;99842.38;4984524;28;20123;-84
2021/12/28 01:51:38;;;;;;;71.97;32.53;;;;;;;-5.01;100.00;99844.16;4993986;28;20038;-84
2021/12/28 01:54:06;;;;;;;62.10;29.90;;;;;;;-5.01;100.00;99851.88;4994198;28;20050;-84
2021/12/28 01:56:40;;;;;;;71.47;31.77;;;;;;;-5.02;100.00;99856.16;4973178;28;20042;-84
2021/12/28 01:59:09;;;;;;;72.03;32.07;;;;;;;-5.01;100.00;99846.72;4971132;28;20076;-83
2021/12/28 02:01:36;;;;;;;84.80;31.03;;;;;;;-5.05;100.00;99832.00;4987426;28;20064;-84
2021/12/28 02:04:12;;;;;;;62.20;32.07;;;;;;;-5.11;100.00;99822.41;4974761;28;20064;-83
2021/12/28 02:06:39;;;;;;;69.33;30.13;;;;;;;-5.12;100.00;99826.69;4992568;28;20053;-83
2021/12/28 02:09:06;;;;;;;70.03;32.60;;;;;;;-5.12;100.00;99821.56;4975667;28;20033;-83
2021/12/28 02:11:33;;;;;;;71.83;32.60;;;;;;;-5.09;100.00;99815.59;4963151;28;20045;-83
2021/12/28 02:14:05;;;;;;;72.90;32.13;;;;;;;-5.15;100.00;99818.88;5003950;28;20042;-83
2021/12/28 02:16:33;;;;;;;71.13;30.83;;;;;;;-5.11;100.00;99813.00;4965885;28;20100;-82
2021/12/28 02:19:02;;;;;;;65.57;31.33;;;;;;;-5.15;100.00;99802.53;4985328;28;20050;-84
2021/12/28 02:21:32;;;;;;;64.80;31.13;;;;;;;-5.19;100.00;99805.88;4991823;23;20451;-86
2021/12/28 02:24:03;;;;;;;71.40;31.77;;;;;;;-5.26;100.00;99807.41;4967879;28;20046;-86
2021/12/28 02:26:29;;;;;;;70.10;32.30;;;;;;;-5.26;100.00;99804.81;4959862;28;20050;-86
2021/12/28 02:28:56;;;;;;;72.63;32.40;;;;;;;-5.30;100.00;99792.66;4957619;28;20043;-87
2021/12/28 02:31:24;;;;;;;67.47;30.53;;;;;;;-5.24;100.00;99790.28;4973296;28;20046;-87
2021/12/28 02:33:51;;;;;;;63.60;29.60;;;;;;;-5.29;100.00;99791.00;4958394;28;20038;-87
2021/12/28 02:36:19;;;;;;;71.40;33.40;;;;;;;-5.39;100.00;99780.41;4959144;28;20447;-85
2021/12/28 02:38:46;;;;;;;70.27;31.27;;;;;;;-5.29;100.00;99779.00;4975511;28;20125;-85
2021/12/28 02:41:14;;;;;;;64.90;33.27;;;;;;;-5.29;100.00;99773.84;4986817;28;20793;-87
2021/12/28 02:43:41;;;;;;;73.40;31.40;;;;;;;-5.24;100.00;99787.72;4976433;28;20069;-86
2021/12/28 02:46:09;;;;;;;69.97;32.97;;;;;;;-5.28;100.00;99783.31;4975936;28;20057;-86
2021/12/28 02:48:37;;;;;;;73.40;33.83;;;;;;;-5.29;100.00;99781.56;4967765;28;20574;-85
2021/12/28 02:51:13;;;;;;;69.10;31.97;;;;;;;-5.42;100.00;99780.34;4991148;28;20042;-86
2021/12/28 02:53:40;;;;;;;75.20;33.07;;;;;;;-5.34;100.00;99782.25;4962530;28;20163;-85
2021/12/28 02:56:07;;;;;;;64.63;31.23;;;;;;;-5.34;100.00;99775.41;4946092;28;20043;-84
2021/12/28 02:58:37;;;;;;;77.57;32.87;;;;;;;-5.32;100.00;99766.03;4974811;28;20050;-83
2021/12/28 03:01:19;;;;;;;75.40;32.83;;;;;;;-5.45;100.00;99751.94;4980541;28;20046;-83
2021/12/28 03:03:49;;;;;;;68.33;30.93;;;;;;;-5.36;100.00;99764.22;4956765;28;20515;-84
2021/12/28 03:06:17;;;;;;;76.90;33.27;;;;;;;-5.33;100.00;99760.84;4989180;28;20042;-83
2021/12/28 03:08:48;;;;;;;67.77;31.17;;;;;;;-5.30;100.00;99760.91;4974684;28;20038;-83
2021/12/28 03:11:16;;;;;;;66.37;31.17;;;;;;;-5.31;100.00;99766.88;4967042;28;20065;-84
2021/12/28 03:13:49;;;;;;;77.47;34.37;;;;;;;-5.33;100.00;99772.00;4945736;28;20504;-83
2021/12/28 03:16:17;;;;;;;71.68;32.22;;;;;;;-5.34;100.00;99762.53;4943164;28;20129;-83
2021/12/28 03:18:45;;;;;;;64.70;31.47;;;;;;;-5.37;100.00;99759.88;4950503;28;20047;-82
2021/12/28 03:21:13;;;;;;;74.10;35.67;;;;;;;-5.50;100.00;99747.47;4955924;28;20104;-83
2021/12/28 03:23:40;;;;;;;82.80;37.03;;;;;;;-5.37;100.00;99754.75;4943222;28;20056;-84
2021/12/28 03:26:08;;;;;;;92.90;40.93;;;;;;;-5.36;100.00;99743.63;4958304;28;20085;-82
2021/12/28 03:28:39;;;;;;;84.47;39.00;;;;;;;-5.40;100.00;99744.34;4960334;28;20499;-83
2021/12/28 03:31:07;;;;;;;87.33;39.20;;;;;;;-5.40;100.00;99734.91;4973555;28;20039;-83
2021/12/28 03:33:37;;;;;;;103.90;44.00;;;;;;;-5.41;100.00;99717.72;4955079;28;20487;-83
2021/12/28 03:36:06;;;;;;;74.63;32.77;;;;;;;-5.39;100.00;99723.78;4972384;28;20077;-82
2021/12/28 03:38:33;;;;;;;74.33;32.10;;;;;;;-5.39;100.00;99730.63;4970240;28;20133;-83
2021/12/28 03:41:01;;;;;;;76.07;35.73;;;;;;;-5.39;100.00;99715.19;4987488;28;20045;-83
2021/12/28 03:43:27;;;;;;;85.50;39.73;;;;;;;-5.36;100.00;99706.69;4981208;28;20145;-83
2021/12/28 03:45:54;;;;;;;75.63;35.13;;;;;;;-5.41;100.00;99699.72;4949363;28;20038;-84
2021/12/28 03:48:21;;;;;;;73.00;33.93;;;;;;;-5.39;100.00;99680.03;4971445;28;20065;-83
2021/12/28 03:50:48;;;;;;;71.37;31.20;;;;;;;-5.42;100.00;99691.94;4937026;28;20049;-84
2021/12/28 03:53:14;;;;;;;68.27;32.20;;;;;;;-5.41;100.00;99701.41;4971033;28;20400;-83
2021/12/28 03:55:41;;;;;;;71.23;32.87;;;;;;;-5.39;100.00;99704.91;4971812;28;20407;-83
2021/12/28 03:58:08;;;;;;;80.63;35.10;;;;;;;-5.41;100.00;99704.00;4955362;28;20051;-83
2021/12/28 04:00:38;;;;;;;62.87;30.67;;;;;;;-5.38;100.00;99696.38;4947554;28;20057;-84
2021/12/28 04:03:06;;;;;;;80.83;33.37;;;;;;;-5.44;100.00;99704.78;4966002;28;20597;-83
2021/12/28 04:05:33;;;;;;;122.67;54.70;;;;;;;-5.34;100.00;99699.88;4932182;28;20037;-83
2021/12/28 04:08:00;;;;;;;86.53;40.70;;;;;;;-5.39;100.00;99710.03;4960034;28;20448;-83
2021/12/28 04:10:48;;;;;;;73.97;35.83;;;;;;;-5.43;100.00;99700.50;4947828;28;20130;-84
2021/12/28 04:13:16;;;;;;;94.60;43.90;;;;;;;-5.40;100.00;99688.59;4968849;28;20089;-84
2021/12/28 04:15:43;;;;;;;73.00;34.57;;;;;;;-5.41;100.00;99696.25;4950762;28;20047;-84
2021/12/28 04:18:10;;;;;;;73.07;32.00;;;;;;;-5.42;100.00;99704.81;4953450;28;20504;-83
2021/12/28 04:20:37;;;;;;;69.90;32.67;;;;;;;-5.46;100.00;99705.59;4955621;28;20117;-82
2021/12/28 04:23:03;;;;;;;69.53;31.97;;;;;;;-5.54;100.00;99704.50;4985281;28;20034;-84
2021/12/28 04:25:31;;;;;;;68.30;32.63;;;;;;;-5.42;100.00;99689.38;4949034;28;20038;-84
2021/12/28 04:27:57;;;;;;;77.53;33.20;;;;;;;-5.36;100.00;99683.53;4956357;28;20053;-84
2021/12/28 04:30:24;;;;;;;75.67;31.73;;;;;;;-5.48;100.00;99663.47;4945612;28;20446;-85
2021/12/28 04:32:52;;;;;;;68.23;31.20;;;;;;;-5.53;100.00;99665.06;4961968;28;20554;-84
2021/12/28 04:35:18;;;;;;;69.33;31.63;;;;;;;-5.49;100.00;99665.16;4941639;28;20496;-84
2021/12/28 04:37:46;;;;;;;66.77;31.33;;;;;;;-5.50;100.00;99659.97;4940850;28;20047;-84
2021/12/28 04:40:14;;;;;;;72.80;31.73;;;;;;;-5.59;100.00;99657.16;4943503;28;20038;-83
2021/12/28 04:42:42;;;;;;;71.53;31.80;;;;;;;-5.49;100.00;99644.56;4940975;28;20054;-82
2021/12/28 04:45:10;;;;;;;67.97;29.90;;;;;;;-5.52;100.00;99657.38;4955235;28;20047;-83
2021/12/28 04:47:38;;;;;;;70.80;31.77;;;;;;;-5.52;100.00;99647.09;4972197;28;20134;-83
2021/12/28 04:50:06;;;;;;;67.20;32.03;;;;;;;-5.48;100.00;99643.75;4969876;28;20502;-83
2021/12/28 04:52:37;;;;;;;74.47;32.63;;;;;;;-5.57;100.00;99633.19;4955360;28;20053;-83
2021/12/28 04:55:11;;;;;;;71.43;30.90;;;;;;;-5.55;100.00;99625.53;4966622;28;20395;-83
2021/12/28 04:57:38;;;;;;;;;;;;;;;-5.54;100.00;99617.00;4978276;28;20054;-83
2021/12/28 05:00:08;;;;;;;64.50;29.97;;;;;;;-5.51;100.00;99625.66;4977461;28;19922;-85
2021/12/28 05:02:35;;;;;;;63.97;29.50;;;;;;;-5.52;100.00;99626.50;4984196;28;20042;-82
2021/12/28 05:05:03;;;;;;;69.70;31.13;;;;;;;-5.62;100.00;99616.78;4965499;28;20038;-83
2021/12/28 05:07:30;;;;;;;69.10;31.70;;;;;;;-5.61;100.00;99604.78;4959714;28;20053;-82
2021/12/28 05:09:58;;;;;;;63.70;31.07;;;;;;;-5.61;100.00;99607.38;4972702;28;20048;-83
2021/12/28 05:12:27;;;;;;;68.10;30.03;;;;;;;-5.57;100.00;99614.31;4961815;28;20050;-82
2021/12/28 05:14:53;;;;;;;65.00;28.57;;;;;;;-5.67;100.00;99608.94;4946068;28;20089;-83
2021/12/28 05:17:20;;;;;;;67.97;31.57;;;;;;;-5.63;100.00;99609.00;4963902;28;20101;-83
2021/12/28 05:19:47;;;;;;;68.50;30.87;;;;;;;-5.67;100.00;99616.66;4978256;28;20046;-84
2021/12/28 05:22:13;;;;;;;69.37;31.50;;;;;;;-5.61;100.00;99604.78;4966500;28;20038;-83
2021/12/28 05:24:40;;;;;;;71.67;31.00;;;;;;;-5.62;100.00;99615.91;4963889;28;20050;-83
2021/12/28 05:27:07;;;;;;;73.57;32.00;;;;;;;-5.60;100.00;99593.66;4958492;28;20050;-84
2021/12/28 05:29:33;;;;;;;72.30;31.93;;;;;;;-5.69;100.00;99602.00;4966824;28;20412;-83
2021/12/28 05:32:00;;;;;;;80.20;31.87;;;;;;;-5.72;100.00;99592.53;4973326;28;20046;-83
2021/12/28 05:34:27;;;;;;;78.50;34.97;;;;;;;-5.70;100.00;99611.44;4978212;28;20321;-84
2021/12/28 05:36:54;;;;;;;76.17;30.97;;;;;;;-5.72;100.00;99607.94;4955943;28;20042;-83
2021/12/28 05:39:20;;;;;;;62.73;30.83;;;;;;;-5.78;100.00;99610.34;4939273;28;20393;-82
2021/12/28 05:41:48;;;;;;;65.40;30.87;;;;;;;-5.70;100.00;99606.28;4932716;28;20042;-83
2021/12/28 05:44:17;;;;;;;64.00;30.40;;;;;;;-5.65;100.00;99611.53;4952187;28;20042;-83
2021/12/28 05:46:45;;;;;;;75.17;32.03;;;;;;;-5.66;100.00;99591.78;4960506;28;20042;-83
2021/12/28 05:49:13;;;;;;;71.83;30.90;;;;;;;-5.69;100.00;99592.59;4944347;28;20042;-84
2021/12/28 05:51:40;;;;;;;68.97;33.00;;;;;;;-5.73;100.00;99585.59;4947650;28;20074;-85
2021/12/28 05:54:07;;;;;;;68.23;30.00;;;;;;;-5.71;100.00;99572.81;4959578;28;20047;-84
2021/12/28 05:56:34;;;;;;;70.27;32.33;;;;;;;-5.71;100.00;99578.81;4964428;28;20428;-84
2021/12/28 05:59:00;;;;;;;64.73;30.00;;;;;;;-5.68;100.00;99573.75;4979548;28;20069;-83
2021/12/28 06:01:28;;;;;;;74.50;31.37;;;;;;;-5.70;100.00;99572.84;4966603;28;20042;-83
2021/12/28 06:03:55;;;;;;;66.60;30.60;;;;;;;-5.73;100.00;99570.16;4965368;28;20057;-83
2021/12/28 06:06:22;;;;;;;67.10;30.80;;;;;;;-5.73;100.00;99577.88;4962169;28;20030;-84
2021/12/28 06:08:51;;;;;;;69.93;30.23;;;;;;;-5.69;100.00;99602.88;4960835;28;20093;-83
2021/12/28 06:11:17;;;;;;;70.17;33.57;;;;;;;-5.60;100.00;99609.09;4982866;28;20050;-83
2021/12/28 06:13:45;;;;;;;63.70;30.00;;;;;;;-5.63;100.00;99607.34;4979297;28;20495;-83
2021/12/28 06:16:14;;;;;;;66.67;30.73;;;;;;;-5.59;100.00;99604.00;4968292;28;20046;-83
2021/12/28 06:18:41;;;;;;;74.90;33.73;;;;;;;-5.46;100.00;99602.63;4961465;28;20042;-83
2021/12/28 06:21:08;;;;;;;68.40;30.60;;;;;;;-5.53;100.00;99601.59;4958168;28;20050;-83
2021/12/28 06:23:35;;;;;;;69.83;30.37;;;;;;;-5.42;100.00;99597.59;4952047;28;20053;-83
2021/12/28 06:26:02;;;;;;;73.47;32.17;;;;;;;-5.34;100.00;99591.78;4961420;28;20064;-83
2021/12/28 06:28:28;;;;;;;65.40;30.20;;;;;;;-5.37;100.00;99605.44;4958702;28;20057;-83
2021/12/28 06:30:56;;;;;;;69.73;31.80;;;;;;;-5.37;100.00;99597.72;4959173;28;20047;-84
2021/12/28 06:33:24;;;;;;;66.40;29.47;;;;;;;-5.39;100.00;99594.22;4954940;28;20038;-84
2021/12/28 06:35:51;;;;;;;69.53;32.63;;;;;;;-5.39;100.00;99607.09;4985502;28;20537;-83
2021/12/28 06:38:19;;;;;;;74.27;32.80;;;;;;;-5.33;100.00;99598.66;4972959;28;20049;-83
2021/12/28 06:40:46;;;;;;;67.73;30.47;;;;;;;-5.31;100.00;99592.72;4958634;28;20050;-83
2021/12/28 06:43:13;;;;;;;73.77;33.20;;;;;;;-5.35;100.00;99584.88;4965186;28;20043;-85
2021/12/28 06:45:40;;;;;;;60.67;29.17;;;;;;;-5.31;100.00;99578.97;4959700;28;20123;-84
2021/12/28 06:48:07;;;;;;;70.43;30.70;;;;;;;-5.28;100.00;99589.38;4962518;28;20124;-83
2021/12/28 06:50:34;;;;;;;69.23;30.77;;;;;;;-5.30;100.00;99580.72;4984111;28;20043;-84
2021/12/28 06:53:01;;;;;;;69.17;32.50;;;;;;;-5.27;100.00;99581.69;4979964;28;20044;-84
2021/12/28 06:55:28;;;;;;;71.07;31.37;;;;;;;-5.17;100.00;99581.06;4959377;28;20042;-84
2021/12/28 06:57:55;;;;;;;65.93;31.03;;;;;;;-5.20;100.00;99572.41;4960600;28;20053;-84
2021/12/28 07:00:22;;;;;;;73.67;31.53;;;;;;;-5.12;100.00;99565.75;4974587;28;20574;-84
2021/12/28 07:02:48;;;;;;;74.43;31.40;;;;;;;-5.18;100.00;99557.88;4956890;28;20119;-84
2021/12/28 07:05:16;;;;;;;72.13;31.67;;;;;;;-5.14;100.00;99551.94;4962211;28;20129;-86
2021/12/28 07:07:42;;;;;;;71.43;29.97;;;;;;;-5.15;100.00;99556.22;4978970;28;20389;-85
2021/12/28 07:10:09;;;;;;;68.70;31.43;;;;;;;-5.13;100.00;99572.59;4971007;28;20046;-86
2021/12/28 07:12:36;;;;;;;71.73;32.67;;;;;;;-5.13;100.00;99569.13;4960434;28;20531;-85
2021/12/28 07:15:04;;;;;;;71.60;31.43;;;;;;;-5.11;100.00;99572.63;4975941;28;20053;-84
2021/12/28 07:17:31;;;;;;;72.77;32.90;;;;;;;-5.01;100.00;99576.31;4992993;28;20503;-85
2021/12/28 07:19:58;;;;;;;73.37;30.67;;;;;;;-4.97;100.00;99576.41;4958912;28;20042;-84
2021/12/28 07:22:26;;;;;;;70.80;30.77;;;;;;;-4.93;100.00;99567.91;4960336;28;20049;-84
2021/12/28 07:24:52;;;;;;;72.23;30.50;;;;;;;-4.92;100.00;99571.38;4975066;28;20050;-84
2021/12/28 07:27:19;;;;;;;67.67;31.13;;;;;;;-4.92;100.00;99561.94;4960247;28;20038;-83
2021/12/28 07:29:46;;;;;;;71.53;31.80;;;;;;;-4.84;100.00;99549.22;4965902;28;20508;-83
2021/12/28 07:32:12;;;;;;;70.90;31.63;;;;;;;-4.83;100.00;99553.53;4957974;28;20042;-87
2021/12/28 07:34:39;;;;;;;68.33;30.97;;;;;;;-4.85;100.00;99538.06;4952300;28;20097;-87
2021/12/28 07:37:06;;;;;;;66.07;32.53;;;;;;;-4.88;99.63;99542.25;4973331;28;20034;-87
2021/12/28 07:39:33;;;;;;;68.00;31.57;;;;;;;-4.87;100.00;99542.31;4955628;28;20113;-84
2021/12/28 07:42:00;;;;;;;69.97;31.07;;;;;;;-4.88;99.98;99547.41;4955739;28;20043;-84
2021/12/28 07:44:26;;;;;;;75.00;32.00;;;;;;;-4.96;99.25;99559.22;4950170;28;20046;-83
2021/12/28 07:46:53;;;;;;;69.40;32.27;;;;;;;-4.96;100.00;99551.50;4940814;28;20526;-85
2021/12/28 07:49:20;;;;;;;69.17;31.77;;;;;;;-4.85;100.00;99553.53;4942785;28;20042;-83
2021/12/28 07:51:48;;;;;;;70.07;30.20;;;;;;;-4.81;100.00;99560.47;4956253;28;20050;-85
2021/12/28 07:54:15;;;;;;;64.17;30.40;;;;;;;-4.82;100.00;99566.47;4993631;28;20515;-85
2021/12/28 07:56:42;;;;;;;78.93;34.37;;;;;;;-4.75;100.00;99561.47;4970439;28;20046;-84
2021/12/28 07:59:08;;;;;;;68.83;31.27;;;;;;;-4.73;100.00;99567.50;4956651;28;20049;-85
2021/12/28 08:01:35;;;;;;;73.07;32.03;;;;;;;-4.69;99.17;99559.91;4955499;28;20046;-85
2021/12/28 08:04:03;;;;;;;71.47;30.97;;;;;;;-4.73;98.92;99545.19;4970566;28;20134;-87
2021/12/28 08:06:29;;;;;;;63.33;32.07;;;;;;;-4.69;98.37;99544.44;4962444;28;20037;-87
2021/12/28 08:08:56;;;;;;;68.63;32.07;;;;;;;-4.65;99.40;99541.06;4956563;28;20053;-86
2021/12/28 08:11:23;;;;;;;75.83;31.77;;;;;;;-4.64;100.00;99540.22;4989496;28;20089;-86
2021/12/28 08:13:50;;;;;;;68.23;32.43;;;;;;;-4.61;99.34;99537.75;4962837;28;20043;-85
2021/12/28 08:16:17;;;;;;;71.97;32.07;;;;;;;-4.63;99.26;99536.81;4955714;28;20035;-86
2021/12/28 08:18:44;;;;;;;73.20;32.53;;;;;;;-4.61;97.80;99504.25;4946733;28;20074;-86
2021/12/28 08:21:11;;;;;;;70.07;30.73;;;;;;;-4.63;99.03;99510.19;4941844;28;20034;-86
2021/12/28 08:23:38;;;;;;;63.63;31.10;;;;;;;-4.63;98.83;99516.19;4956245;28;20098;-86
2021/12/28 08:26:04;;;;;;;75.93;36.87;;;;;;;-4.55;98.95;99512.09;4947589;28;20478;-85
2021/12/28 08:28:31;;;;;;;72.73;33.40;;;;;;;-4.56;99.66;99504.31;4970022;28;20058;-86
2021/12/28 08:30:58;;;;;;;108.50;51.70;;;;;;;-4.46;98.55;99505.38;4974639;28;20056;-87
2021/12/28 08:33:25;;;;;;;86.07;39.80;;;;;;;-4.35;98.23;99506.50;4959283;28;20050;-86
2021/12/28 08:35:52;;;;;;;74.33;32.57;;;;;;;-4.33;98.53;99517.69;4953977;28;20121;-87
2021/12/28 08:38:19;;;;;;;68.80;31.70;;;;;;;-4.29;98.04;99512.66;4952539;28;20034;-85
2021/12/28 08:40:46;;;;;;;66.70;30.80;;;;;;;-4.30;98.59;99516.03;4958079;28;20042;-86
2021/12/28 08:43:13;;;;;;;69.70;33.70;;;;;;;-4.20;98.24;99527.44;4938508;28;20038;-84
2021/12/28 08:45:41;;;;;;;68.97;32.90;;;;;;;-4.16;99.30;99520.63;4957079;28;20046;-85
2021/12/28 08:48:10;;;;;;;65.43;33.13;;;;;;;-4.12;97.34;99513.00;4959520;28;20039;-84
2021/12/28 08:50:38;;;;;;;76.20;35.53;;;;;;;-4.05;97.07;99503.63;4953204;28;20050;-88
2021/12/28 08:53:04;;;;;;;73.10;34.10;;;;;;;-4.08;96.45;99491.56;4942815;28;20046;-85
2021/12/28 08:55:31;;;;;;;67.33;32.20;;;;;;;-3.97;95.67;99496.91;4969651;28;20050;-89
2021/12/28 08:57:58;;;;;;;74.50;31.67;;;;;;;-4.03;95.76;99492.53;4961982;28;20141;-87
2021/12/28 09:00:27;;;;;;;66.80;32.07;;;;;;;-3.95;96.83;99497.84;4969405;28;20053;-88
2021/12/28 09:02:56;;;;;;;65.07;33.10;;;;;;;-3.84;96.25;99504.06;4962297;28;20064;-85
2021/12/28 09:05:24;;;;;;;147.87;65.67;;;;;;;-3.90;96.50;99511.69;4982110;28;20070;-85
2021/12/28 09:07:52;;;;;;;80.10;35.60;;;;;;;-3.87;95.17;99505.69;4971808;28;20042;-84
2021/12/28 09:10:19;;;;;;;77.87;33.73;;;;;;;-3.77;96.35;99508.50;4950146;28;20102;-86
2021/12/28 09:12:45;;;;;;;86.40;35.13;;;;;;;-3.75;96.20;99509.38;4966415;28;20077;-88
2021/12/28 09:15:30;;;;;;;135.50;54.17;;;;;;;-3.66;97.09;99508.69;4957005;28;20113;-86
2021/12/28 09:17:57;;;;;;;70.78;33.30;;;;;;;-3.67;93.92;99496.63;4966305;28;20050;-84
2021/12/28 09:20:26;;;;;;;73.23;34.60;;;;;;;-3.71;92.61;99498.25;4974367;28;20042;-86
2021/12/28 09:23:06;;;;;;;78.70;35.70;;;;;;;-3.63;93.39;99497.53;4971236;28;20074;-86
2021/12/28 09:25:33;;;;;;;189.00;79.93;;;;;;;-3.63;94.33;99498.41;4960052;28;20046;-86
2021/12/28 09:27:59;;;;;;;98.03;44.60;;;;;;;-3.72;94.36;99486.22;4983358;28;20047;-88
2021/12/28 09:30:26;;;;;;;105.53;43.07;;;;;;;-3.56;95.18;99489.94;4959038;28;20077;-85
2021/12/28 09:32:53;;;;;;;84.07;38.77;;;;;;;-3.50;95.70;99484.88;4977099;28;20042;-86
2021/12/28 09:35:20;;;;;;;75.00;34.97;;;;;;;-3.46;95.57;99484.06;4980498;28;20492;-86
2021/12/28 09:37:47;;;;;;;74.40;33.03;;;;;;;-3.36;94.17;99476.47;4947578;28;20042;-86
2021/12/28 09:40:14;;;;;;;69.70;33.33;;;;;;;-3.37;94.54;99474.72;4960917;28;20523;-86
2021/12/28 09:42:42;;;;;;;74.83;33.07;;;;;;;-3.25;94.09;99467.19;4962757;28;20057;-86
2021/12/28 09:45:11;;;;;;;74.83;32.20;;;;;;;-3.36;93.29;99473.88;4960449;28;20100;-86
2021/12/28 09:47:38;;;;;;;68.37;32.97;;;;;;;-3.34;94.55;99472.22;4965361;28;20133;-86
2021/12/28 09:50:15;;;;;;;69.03;34.47;;;;;;;-3.32;92.90;99458.47;4976115;28;20419;-86
2021/12/28 09:52:44;;;;;;;67.80;31.10;;;;;;;-3.43;91.88;99458.31;4957907;28;20053;-86
2021/12/28 09:55:12;;;;;;;73.30;32.97;;;;;;;-3.61;91.45;99449.41;4963719;28;20053;-86
2021/12/28 09:57:40;;;;;;;80.30;35.50;;;;;;;-3.49;93.53;99445.31;4997522;28;20042;-86
2021/12/28 10:00:08;;;;;;;74.93;33.20;;;;;;;-3.41;91.69;99433.38;4980405;28;20392;-86
2021/12/28 10:02:36;;;;;;;98.47;45.03;;;;;;;-3.30;93.02;99435.25;4965790;28;20049;-86
2021/12/28 10:05:07;;;;;;;85.33;41.13;;;;;;;-3.37;91.79;99436.00;4980302;28;20112;-86
2021/12/28 10:07:37;;;;;;;78.80;37.07;;;;;;;-3.36;93.28;99435.16;4980987;28;20395;-86
2021/12/28 10:10:06;;;;;;;74.83;35.33;;;;;;;-3.56;91.88;99427.09;4979317;28;20046;-86
2021/12/28 10:12:39;;;;;;;77.67;34.03;;;;;;;-3.26;93.38;99440.50;4981213;28;20046;-86
2021/12/28 10:15:15;;;;;;;68.50;32.93;;;;;;;-3.21;92.73;99445.72;4963570;28;20046;-85
2021/12/28 10:17:45;;;;;;;73.27;33.23;;;;;;;-3.15;92.38;99451.84;4980656;28;20053;-87
2021/12/28 10:20:27;;;;;;;79.13;33.23;;;;;;;-3.12;92.58;99445.84;4963556;28;20088;-87
2021/12/28 10:22:58;;;;;;;63.87;31.47;;;;;;;-3.17;91.50;99460.44;4964738;28;20068;-85
2021/12/28 10:25:28;;;;;;;74.73;34.40;;;;;;;-3.09;92.93;99453.69;4964993;28;20042;-86
2021/12/28 10:28:01;;;;;;;72.60;34.17;;;;;;;-3.16;92.50;99451.84;4966371;28;20049;-86
2021/12/28 10:30:33;;;;;;;77.37;33.07;;;;;;;-3.03;93.01;99437.38;4965273;28;20255;-87
2021/12/28 10:33:13;;;;;;;75.07;34.03;;;;;;;-2.96;92.48;99437.47;4965901;28;20049;-87
2021/12/28 10:35:44;;;;;;;76.27;36.27;;;;;;;-2.96;92.26;99423.69;5071921;23;20587;-83
2021/12/28 10:38:15;;;;;;;385.20;210.10;;;;;;;-2.86;92.45;99420.38;4988974;28;20045;-83
2021/12/28 10:40:49;;;;;;;107.43;49.83;;;;;;;-2.79;93.52;99408.41;4990672;28;20091;-83
2021/12/28 10:43:27;;;;;;;100.68;43.50;;;;;;;-2.72;91.60;99416.28;4957300;28;20053;-83
2021/12/28 10:46:00;;;;;;;130.17;63.83;;;;;;;-2.74;91.63;99410.22;4972506;28;20739;-82
2021/12/28 10:48:35;;;;;;;136.88;67.07;;;;;;;-2.72;91.18;99403.34;4963577;28;20117;-82
2021/12/28 10:51:09;;;;;;;84.50;42.33;;;;;;;-2.64;91.61;99395.69;4979180;28;20037;-82
2021/12/28 10:54:36;;;;;;;101.30;47.73;;;;;;;-2.66;91.98;99393.09;5001996;28;20054;-81
2021/12/28 10:56:46;;;;;;;85.07;40.73;;;;;;;-2.71;92.20;99396.47;4972773;28;20062;-82
2021/12/28 10:59:14;;;;;;;72.13;35.10;;;;;;;-2.75;91.12;99389.53;4978174;28;20045;-84
2021/12/28 11:01:42;;;;;;;105.10;57.47;;;;;;;-2.75;92.89;99392.97;4977658;28;20056;-84
2021/12/28 11:04:11;;;;;;;135.47;69.37;;;;;;;-2.78;93.17;99386.88;4977947;28;20089;-84
2021/12/28 11:06:39;;;;;;;75.27;36.27;;;;;;;-2.73;90.52;99386.09;4963946;28;20041;-84
2021/12/28 11:09:08;;;;;;;82.57;37.70;;;;;;;-2.78;92.18;99372.25;4994858;28;20045;-84
2021/12/28 11:11:36;;;;;;;72.20;34.57;;;;;;;-2.71;92.61;99374.06;4976690;28;20061;-85
2021/12/28 11:14:10;;;;;;;73.73;34.57;;;;;;;-2.67;92.02;99382.75;4977331;28;20046;-83
2021/12/28 11:16:37;;;;;;;79.13;36.08;;;;;;;-2.63;92.88;99380.19;4974474;28;20061;-84